Time;durP1;ratioP1;P1;durP2;ratioP2;P2;SDS_P1;SDS_P2;PMS_P1;PMS_P2;Temp;Humidity;BMP_temperature;BMP_pressure;BME280_temperature;BME280_humidity;BME280_pressure;Samples;Min_cycle;Max_cycle;Signal;HPM_P1;HPM_P2
2022/08/09 00:01:35;;;;;;;4.40;1.15;;;18.20;73.50;;;18.08;50.87;97766.31;4994535;28;20103;-44
2022/08/09 00:04:01;;;;;;;1.45;0.98;;;18.10;73.90;;;18.02;51.01;97757.84;4992879;28;20042;-48
2022/08/09 00:06:27;;;;;;;1.73;1.13;;;18.10;74.20;;;17.96;51.44;97760.88;4996868;28;20107;-48
2022/08/09 00:08:53;;;;;;;1.27;0.85;;;18.00;74.70;;;17.90;51.86;97756.78;5015421;28;20791;-47
2022/08/09 00:11:20;;;;;;;4.10;0.98;;;17.90;75.00;;;17.86;52.39;97757.94;4996621;28;20025;-48
2022/08/09 00:13:46;;;;;;;1.33;1.00;;;17.90;75.50;;;17.81;52.68;97759.97;4991177;28;20080;-44
2022/08/09 00:16:12;;;;;;;2.22;1.33;;;17.80;75.80;;;17.78;53.13;97768.16;4992481;28;20088;-47
2022/08/09 00:18:38;;;;;;;3.33;1.33;;;17.80;76.10;;;17.77;55.89;97769.13;4996198;28;20435;-48
2022/08/09 00:21:05;;;;;;;1.40;1.00;;;17.80;78.30;;;17.69;59.44;97765.13;4996605;28;20069;-45
2022/08/09 00:23:31;;;;;;;1.40;0.90;;;17.80;80.80;;;17.61;59.33;97762.03;4992791;28;20042;-45
2022/08/09 00:25:57;;;;;;;1.80;1.00;;;17.70;80.80;;;17.53;57.77;97770.50;4993341;28;20034;-46
2022/08/09 00:28:23;;;;;;;2.75;1.23;;;17.60;79.40;;;17.47;57.02;97770.00;4993326;28;20061;-48
2022/08/09 00:30:50;;;;;;;2.00;1.20;;;17.60;78.80;;;17.35;56.16;97766.22;4989205;28;20022;-44
2022/08/09 00:33:16;;;;;;;1.48;1.10;;;17.50;78.20;;;17.31;58.27;97770.03;4987554;28;20061;-44
2022/08/09 00:35:42;;;;;;;3.47;1.08;;;17.40;79.70;;;17.20;59.02;97765.31;4989812;28;20042;-44
2022/08/09 00:38:11;;;;;;;1.50;0.90;;;17.30;80.30;;;17.07;59.38;97764.31;4996726;28;20061;-43
2022/08/09 00:40:38;;;;;;;3.33;1.27;;;17.20;80.60;;;17.01;59.59;97767.31;4992960;28;21477;-44
2022/08/09 00:43:04;;;;;;;1.70;1.02;;;17.10;81.00;;;16.95;59.72;97761.41;4991848;28;20741;-46
2022/08/09 00:45:30;;;;;;;2.10;1.30;;;17.00;81.20;;;16.90;59.70;97768.78;4986710;28;20042;-48
2022/08/09 00:47:56;;;;;;;3.03;1.23;;;17.00;81.30;;;16.87;59.76;97761.00;4989615;28;20124;-45
2022/08/09 00:50:25;;;;;;;2.55;1.40;;;16.90;81.50;;;16.85;60.10;97760.22;4980572;28;20485;-44
2022/08/09 00:52:52;;;;;;;3.10;1.60;;;16.90;81.60;;;16.84;60.65;97758.50;4984884;28;20351;-45
2022/08/09 00:55:18;;;;;;;3.80;1.60;;;16.90;82.10;;;16.70;60.51;97739.75;4987089;28;20058;-46
2022/08/09 00:57:44;;;;;;;3.33;1.90;;;16.90;82.20;;;16.81;60.40;97755.97;4987448;28;20062;-48
2022/08/09 01:00:12;;;;;;;2.13;1.40;;;16.80;82.00;;;16.80;59.97;97760.44;4987901;28;20409;-48
2022/08/09 01:02:45;;;;;;;2.45;1.55;;;16.80;82.60;;;16.80;59.35;97757.78;4987089;28;20049;-47
2022/08/09 01:05:31;;;;;;;2.65;1.38;;;16.80;81.40;;;16.84;59.66;97757.66;4991794;28;20030;-47
2022/08/09 01:08:19;;;;;;;2.08;1.50;;;16.90;81.70;;;16.78;60.79;97754.34;4985127;28;20026;-49
2022/08/09 01:11:27;;;;;;;2.72;1.60;;;16.80;82.30;;;16.74;60.75;97751.94;4984581;28;21077;-46
2022/08/09 01:14:19;;;;;;;1.92;1.25;;;16.80;82.50;;;16.69;61.18;97760.19;4992657;28;20029;-45
2022/08/09 01:16:47;;;;;;;2.47;1.38;;;16.80;82.80;;;16.53;61.55;97736.22;4984892;28;20040;-47
2022/08/09 01:19:39;;;;;;;2.58;1.45;;;16.70;83.90;;;16.63;62.05;97767.66;4987682;28;20489;-47
2022/08/09 01:22:49;;;;;;;2.30;1.25;;;16.70;83.40;;;16.58;61.98;97751.91;4984574;28;20030;-45
2022/08/09 01:25:57;;;;;;;2.83;1.25;;;16.60;83.50;;;16.53;62.07;97759.34;4988983;28;20222;-46
2022/08/09 01:28:24;;;;;;;4.45;1.48;;;16.60;83.50;;;16.49;63.41;97769.28;4993554;28;20614;-46
2022/08/09 01:30:53;;;;;;;2.88;1.48;;;16.50;84.50;;;16.45;63.92;97773.03;5020755;22;20057;-52
2022/08/09 01:33:27;;;;;;;1.70;1.20;;;16.50;85.00;;;16.36;64.51;97769.06;4995782;28;20493;-48
2022/08/09 01:36:06;;;;;;;2.85;1.33;;;16.50;85.50;;;16.29;64.92;97765.03;4992135;28;20711;-52
2022/08/09 01:38:37;;;;;;;1.40;1.10;;;16.40;85.80;;;16.27;65.65;97769.59;5003649;28;20588;-51
2022/08/09 01:41:14;;;;;;;2.20;1.50;;;16.40;86.30;;;16.24;65.65;97780.41;4995377;28;20045;-52
2022/08/09 01:43:45;;;;;;;2.92;1.23;;;16.30;86.50;;;16.23;64.73;97778.69;4999547;28;20037;-51
2022/08/09 01:46:11;;;;;;;1.52;1.10;;;16.30;85.90;;;16.22;64.48;97787.59;4990277;28;20068;-53
2022/08/09 01:48:39;;;;;;;1.73;1.10;;;16.30;85.80;;;16.19;64.04;97788.63;4991311;28;20037;-48
2022/08/09 01:51:07;;;;;;;2.33;1.40;;;16.30;85.50;;;16.14;64.44;97782.69;4992244;28;20025;-50
2022/08/09 01:53:35;;;;;;;1.95;1.27;;;16.20;85.90;;;16.16;64.42;97782.63;4996553;28;20094;-51
2022/08/09 01:56:03;;;;;;;1.60;1.20;;;16.20;85.90;;;16.09;64.97;97776.75;4998298;28;20076;-48
2022/08/09 01:58:31;;;;;;;2.33;1.38;;;16.20;86.10;;;16.10;65.43;97781.16;4978080;28;20064;-52
2022/08/09 02:00:58;;;;;;;2.42;1.40;;;16.20;86.70;;;16.09;65.79;97781.22;4991217;28;20128;-51
2022/08/09 02:03:28;;;;;;;1.42;1.33;;;16.20;87.00;;;16.07;66.56;97783.97;4996727;28;20038;-50
2022/08/09 02:05:55;;;;;;;2.60;1.75;;;16.10;87.50;;;16.05;67.39;97785.00;5012720;28;20040;-52
2022/08/09 02:08:23;;;;;;;1.70;1.17;;;16.10;88.10;;;16.03;67.35;97790.41;5008148;28;21968;-50
2022/08/09 02:10:51;;;;;;;2.40;1.60;;;16.10;88.20;;;15.99;68.18;97791.50;4994103;28;20120;-50
2022/08/09 02:13:20;;;;;;;1.85;1.40;;;16.10;88.80;;;15.87;68.72;97774.38;4989652;28;20033;-50
2022/08/09 02:15:49;;;;;;;2.85;1.48;;;16.00;89.20;;;15.92;69.32;97798.94;4985226;28;20040;-52
2022/08/09 02:18:20;;;;;;;2.08;1.73;;;16.00;89.70;;;15.88;69.61;97794.72;4990631;28;20365;-50
2022/08/09 02:20:51;;;;;;;2.85;1.30;;;16.00;89.90;;;15.82;69.78;97795.88;4982614;28;20041;-49
2022/08/09 02:23:26;;;;;;;1.60;1.20;;;15.90;90.00;;;15.77;69.68;97789.09;4984000;28;20037;-51
2022/08/09 02:25:57;;;;;;;3.03;1.50;;;15.90;90.00;;;15.73;70.30;97801.66;4983524;28;20048;-51
2022/08/09 02:28:39;;;;;;;2.15;1.45;;;15.80;90.60;;;15.69;70.75;97791.25;4985901;28;20050;-49
2022/08/09 02:31:12;;;;;;;1.40;1.30;;;15.80;90.40;;;15.65;70.58;97798.53;4988478;28;20104;-48
2022/08/09 02:33:42;;;;;;;2.65;1.50;;;15.70;90.30;;;15.63;70.05;97795.94;4982538;28;20041;-50
2022/08/09 02:36:16;;;;;;;2.28;1.40;;;15.70;90.20;;;15.58;70.79;97799.78;4988335;28;20029;-50
2022/08/09 02:38:48;;;;;;;1.40;1.30;;;15.70;90.50;;;15.53;71.47;97801.81;4986985;28;20025;-49
2022/08/09 02:41:37;;;;;;;2.35;1.30;;;15.60;90.70;;;15.46;72.50;97806.56;4986968;28;20029;-49
2022/08/09 02:44:08;;;;;;;1.80;1.30;;;15.60;91.10;;;15.42;72.56;97805.00;4988491;28;20107;-48
2022/08/09 02:46:35;;;;;;;1.73;1.30;;;15.60;91.20;;;15.39;72.22;97806.00;5005186;28;20041;-49
2022/08/09 02:49:06;;;;;;;2.47;1.40;;;15.50;91.10;;;15.37;72.15;97785.78;4993364;28;20276;-48
2022/08/09 02:51:36;;;;;;;4.07;1.37;;;15.50;91.10;;;15.36;72.00;97792.00;4985471;28;20108;-49
2022/08/09 02:54:04;;;;;;;2.75;1.38;;;15.40;91.00;;;15.38;70.33;97790.13;4989200;28;20030;-47
2022/08/09 02:56:34;;;;;;;2.22;1.17;;;15.50;91.00;;;15.43;69.70;97791.66;4991036;28;20037;-50
2022/08/09 02:59:04;;;;;;;2.95;1.40;;;15.50;90.50;;;15.41;70.36;97801.47;5012369;28;20090;-53
2022/08/09 03:01:31;;;;;;;3.65;1.30;;;15.50;90.60;;;15.35;69.83;97785.84;5011985;28;20029;-51
2022/08/09 03:04:00;;;;;;;1.60;1.10;;;15.50;90.50;;;15.40;69.90;97797.09;5010676;28;20041;-53
2022/08/09 03:06:28;;;;;;;2.63;1.38;;;15.50;90.50;;;15.37;70.87;97794.59;4993488;28;20033;-52
2022/08/09 03:08:55;;;;;;;2.88;1.38;;;15.50;90.90;;;15.34;71.06;97789.44;4976860;28;20481;-50
2022/08/09 03:11:22;;;;;;;1.90;1.45;;;15.50;90.90;;;15.31;72.31;97786.94;4989856;28;20048;-51
2022/08/09 03:13:50;;;;;;;1.38;1.20;;;15.50;91.40;;;15.28;72.58;97787.09;4988847;28;20029;-50
2022/08/09 03:16:19;;;;;;;4.18;1.40;;;15.40;91.50;;;15.29;72.04;97791.47;4991791;28;20033;-49
2022/08/09 03:18:49;;;;;;;2.08;1.33;;;15.40;91.40;;;15.28;72.54;97789.75;4996503;28;20045;-48
2022/08/09 03:21:18;;;;;;;2.17;1.25;;;15.40;91.60;;;15.25;72.63;97792.53;4991000;28;20796;-51
2022/08/09 03:23:45;;;;;;;1.98;1.48;;;15.40;91.70;;;15.25;72.59;97793.44;4995629;28;20088;-50
2022/08/09 03:26:14;;;;;;;4.55;1.73;;;15.40;91.70;;;15.23;72.91;97789.09;5013457;28;20034;-49
2022/08/09 03:28:41;;;;;;;1.92;1.33;;;15.40;91.80;;;15.21;73.50;97793.66;4990286;28;20563;-50
2022/08/09 03:31:08;;;;;;;3.78;1.27;;;15.30;92.00;;;15.18;73.80;97802.63;5009455;28;20125;-50
2022/08/09 03:33:36;;;;;;;3.08;1.60;;;15.30;92.10;;;15.14;75.23;97801.03;4989471;28;20034;-52
2022/08/09 03:36:03;;;;;;;4.05;1.40;;;15.20;92.60;;;15.12;76.36;97804.72;4988801;28;20132;-47
2022/08/09 03:38:29;;;;;;;1.88;1.60;;;15.20;93.00;;;15.08;76.69;97804.88;5011963;28;20441;-50
2022/08/09 03:40:55;;;;;;;2.53;1.70;;;15.20;93.20;;;15.06;76.69;97801.44;4999970;28;20037;-50
2022/08/09 03:43:21;;;;;;;3.75;1.80;;;15.20;93.20;;;15.06;76.94;97811.19;5008142;28;20120;-50
2022/08/09 03:45:46;;;;;;;3.78;1.67;;;15.20;93.70;;;15.03;77.19;97800.72;5002270;28;20549;-50
2022/08/09 03:48:12;;;;;;;1.67;1.45;;;15.20;93.50;;;15.01;77.47;97800.78;5007499;28;20416;-49
2022/08/09 03:50:39;;;;;;;2.28;1.70;;;15.20;93.60;;;15.00;77.42;97806.16;5012293;28;20122;-52
2022/08/09 03:53:08;;;;;;;2.53;1.33;;;15.10;93.60;;;14.98;77.39;97803.59;4993319;28;20029;-48
2022/08/09 03:55:35;;;;;;;3.13;1.50;;;15.10;93.70;;;14.93;77.20;97800.31;4996766;28;20468;-51
2022/08/09 03:58:01;;;;;;;3.60;1.48;;;15.10;93.70;;;14.96;77.05;97805.47;4996419;28;20045;-54
2022/08/09 04:00:28;;;;;;;2.03;1.20;;;15.10;93.70;;;14.92;77.56;97805.69;5000537;28;20037;-48
2022/08/09 04:02:55;;;;;;;3.65;1.92;;;15.10;93.90;;;14.89;78.13;97804.03;5006387;28;20029;-50
2022/08/09 04:05:21;;;;;;;3.25;1.42;;;15.00;94.10;;;14.91;77.48;97794.19;4987144;28;20120;-48
2022/08/09 04:07:47;;;;;;;3.80;1.52;;;15.00;94.10;;;14.91;76.90;97796.84;5006894;28;20040;-50
2022/08/09 04:10:14;;;;;;;3.38;1.80;;;15.00;93.90;;;14.97;77.57;97809.84;5012213;28;20072;-53
2022/08/09 04:12:46;;;;;;;2.80;1.67;;;15.10;94.10;;;14.97;78.14;97806.34;5011073;28;20514;-48
2022/08/09 04:15:13;;;;;;;;;;;15.10;94.30;;;14.97;78.12;97814.31;5014118;28;20033;-48
2022/08/09 04:17:40;;;;;;;2.13;1.50;;;15.10;94.30;;;14.96;78.04;97809.91;5012384;28;19924;-48
2022/08/09 04:20:08;;;;;;;2.47;1.45;;;15.10;94.30;;;14.96;78.06;97817.88;4995056;28;20099;-53
2022/08/09 04:22:34;;;;;;;4.45;1.40;;;15.10;94.40;;;14.95;78.29;97825.00;5009472;28;20044;-50
2022/08/09 04:25:00;;;;;;;2.78;1.70;;;15.10;94.50;;;14.91;78.58;97820.75;4994479;28;20025;-49
2022/08/09 04:27:26;;;;;;;1.23;1.10;;;15.10;94.60;;;14.95;78.49;97832.97;5011088;28;20040;-51
2022/08/09 04:29:52;;;;;;;3.15;1.52;;;15.10;94.70;;;14.96;77.85;97831.16;5011341;28;20038;-48
2022/08/09 04:32:18;;;;;;;3.72;1.52;;;15.10;94.90;;;15.03;76.84;97832.59;5012244;28;20021;-48
2022/08/09 04:34:44;;;;;;;2.88;1.40;;;15.20;94.30;;;15.09;76.45;97837.59;5012163;28;20468;-48
2022/08/09 04:37:09;;;;;;;2.55;1.45;;;15.20;94.10;;;15.11;77.82;97834.88;5010953;28;20163;-50
2022/08/09 04:39:35;;;;;;;2.30;1.30;;;15.20;94.60;;;15.11;78.22;97841.06;5014927;28;20029;-49
2022/08/09 04:42:01;;;;;;;4.38;1.67;;;15.20;94.80;;;15.10;78.66;97836.69;5008738;28;20433;-51
2022/08/09 04:44:27;;;;;;;2.00;1.38;;;15.20;94.90;;;15.15;78.44;97852.41;5012428;28;20046;-48
2022/08/09 04:46:52;;;;;;;2.65;1.35;;;15.30;94.90;;;15.19;77.54;97851.31;5008549;28;20037;-50
2022/08/09 04:49:18;;;;;;;3.33;1.48;;;15.30;94.60;;;15.24;77.05;97851.94;5014378;28;20056;-51
2022/08/09 04:51:44;;;;;;;3.08;1.40;;;15.40;94.50;;;15.28;77.84;97846.41;5010703;28;20033;-48
2022/08/09 04:54:10;;;;;;;3.70;1.40;;;15.40;94.70;;;15.30;78.06;97851.66;5008532;28;20059;-48
2022/08/09 04:56:35;;;;;;;2.45;1.48;;;15.40;94.90;;;15.36;78.27;97858.44;5005807;28;20045;-48
2022/08/09 04:59:01;;;;;;;3.53;1.60;;;15.50;95.00;;;15.40;77.97;97865.34;5002693;28;20464;-49
2022/08/09 05:01:27;;;;;;;2.10;1.42;;;15.50;94.90;;;15.43;78.01;97868.72;5013231;28;20033;-50
2022/08/09 05:03:52;;;;;;;3.85;1.85;;;15.50;95.20;;;15.50;77.68;97866.59;5009247;28;20616;-48
2022/08/09 05:06:18;;;;;;;1.77;1.23;;;15.60;94.90;;;15.58;77.15;97869.75;5011349;28;20132;-49
2022/08/09 05:08:44;;;;;;;1.77;1.40;;;15.70;94.70;;;15.67;76.82;97865.78;5012293;28;20422;-49
2022/08/09 05:11:10;;;;;;;2.20;1.60;;;15.80;94.70;;;15.73;76.88;97869.94;5011572;28;20068;-51
2022/08/09 05:13:36;;;;;;;2.63;1.48;;;15.90;94.70;;;15.78;77.09;97871.44;5010874;28;20493;-48
2022/08/09 05:16:02;;;;;;;1.95;1.52;;;15.90;94.70;;;15.86;76.81;97863.06;4999920;28;20497;-49
2022/08/09 05:18:32;;;;;;;3.13;1.45;;;16.00;94.70;;;15.99;77.01;97871.31;4996620;28;20036;-52
2022/08/09 05:20:59;;;;;;;2.47;1.48;;;16.10;94.80;;;16.08;76.72;97873.50;5003889;28;20033;-48
2022/08/09 05:23:25;;;;;;;2.50;1.40;;;16.20;94.80;;;16.17;76.66;97870.34;5001283;28;20030;-47
2022/08/09 05:25:51;;;;;;;2.90;1.45;;;16.30;94.70;;;16.29;76.32;97876.81;5005507;28;20091;-49
2022/08/09 05:28:17;;;;;;;4.30;1.67;;;16.40;94.60;;;16.41;75.79;97872.66;5002666;28;20053;-48
2022/08/09 05:30:43;;;;;;;3.05;1.60;;;16.60;94.50;;;16.54;75.32;97875.53;5003394;28;20116;-49
2022/08/09 05:33:09;;;;;;;4.57;1.63;;;16.70;94.30;;;16.64;75.47;97883.88;5001795;28;20073;-47
2022/08/09 05:35:35;;;;;;;5.03;1.75;;;16.80;94.30;;;16.75;74.71;97886.81;5005434;28;20026;-49
2022/08/09 05:38:01;;;;;;;3.22;1.50;;;16.90;94.10;;;16.86;73.96;97892.44;5005307;28;20242;-50
2022/08/09 05:40:27;;;;;;;3.60;1.80;;;17.00;93.90;;;16.91;72.80;97878.91;5004282;28;20073;-49
2022/08/09 05:42:54;;;;;;;3.38;1.70;;;17.10;93.50;;;17.03;72.10;97885.34;5007564;28;20382;-48
2022/08/09 05:45:20;;;;;;;3.20;1.65;;;17.20;93.20;;;17.12;71.10;97880.38;5007609;28;20045;-48
2022/08/09 05:47:46;;;;;;;2.83;1.40;;;17.30;92.90;;;17.20;69.16;97885.25;5012742;28;20294;-48
2022/08/09 05:50:11;;;;;;;4.18;2.10;;;17.40;92.40;;;17.24;66.33;97884.13;5005584;28;20057;-45
2022/08/09 05:52:39;;;;;;;4.00;1.60;;;17.40;91.30;;;17.32;65.41;97881.91;5010637;28;20033;-49
2022/08/09 05:55:06;;;;;;;3.92;1.40;;;17.50;91.00;;;17.42;64.59;97897.38;4993931;28;20025;-49
2022/08/09 05:57:36;;;;;;;2.10;1.30;;;17.50;90.80;;;17.51;64.16;97899.50;4988647;28;20119;-49
2022/08/09 06:00:05;;;;;;;4.30;1.63;;;17.60;90.60;;;17.58;63.40;97892.03;5009569;28;20037;-47
2022/08/09 06:02:31;;;;;;;2.60;1.50;;;17.80;90.30;;;17.70;62.46;97902.00;5005865;28;20072;-51
2022/08/09 06:04:57;;;;;;;2.88;1.50;;;17.80;90.00;;;17.70;61.90;97894.00;5009675;28;20159;-55
2022/08/09 06:07:22;;;;;;;1.52;1.30;;;18.00;89.70;;;17.91;60.82;97907.94;5010970;28;20029;-54
2022/08/09 06:10:06;;;;;;;1.80;1.15;;;18.00;88.80;;;18.05;59.89;97912.44;5011285;28;20461;-54
2022/08/09 06:12:32;;;;;;;2.67;1.35;;;18.20;88.10;;;18.15;58.31;97916.28;4983626;28;20501;-53
2022/08/09 06:14:58;;;;;;;3.90;1.63;;;18.30;87.00;;;18.25;57.64;97924.59;5017682;28;20041;-53
2022/08/09 06:17:24;;;;;;;2.50;1.55;;;18.40;86.40;;;18.23;58.00;97902.47;5012514;28;20069;-54
2022/08/09 06:19:49;;;;;;;5.95;1.65;;;18.50;86.30;;;18.39;57.82;97915.75;5013741;28;20045;-54
2022/08/09 06:22:16;;;;;;;2.67;1.60;;;18.50;86.40;;;18.46;58.38;97923.28;5013999;28;20037;-53
2022/08/09 06:24:41;;;;;;;1.20;1.08;;;18.60;86.60;;;18.49;58.19;97916.94;5013967;28;20033;-51
2022/08/09 06:27:07;;;;;;;1.83;1.50;;;18.70;86.40;;;18.60;57.97;97929.63;4997186;28;20151;-49
2022/08/09 06:29:33;;;;;;;4.63;1.50;;;18.70;86.10;;;18.67;57.92;97928.31;5015015;28;20496;-53
2022/08/09 06:31:58;;;;;;;1.90;1.50;;;18.80;86.10;;;18.73;57.32;97924.38;5008343;28;20057;-53
2022/08/09 06:34:24;;;;;;;2.97;1.70;;;18.80;85.80;;;18.78;57.36;97925.81;5013069;28;20033;-51
2022/08/09 06:36:57;;;;;;;6.32;1.85;;;18.90;85.80;;;18.92;57.57;97932.16;5013446;28;20389;-53
2022/08/09 06:39:22;;;;;;;;;;;19.00;86.00;;;19.02;57.16;97930.63;4993482;28;20042;-49
2022/08/09 06:41:48;;;;;;;2.00;1.70;;;19.10;85.70;;;19.12;57.43;97931.75;5004166;28;19921;-51
2022/08/09 06:44:14;;;;;;;3.20;1.83;;;19.20;85.90;;;19.22;57.19;97932.03;4988957;28;20168;-54
2022/08/09 06:47:20;;;;;;;2.60;1.75;;;19.30;85.60;;;19.34;57.01;97933.91;5003637;28;20052;-54
2022/08/09 06:49:45;;;;;;;4.53;2.08;;;19.40;85.60;;;19.51;56.53;97932.84;5007833;28;20413;-54
2022/08/09 06:52:11;;;;;;;5.20;2.00;;;19.60;85.20;;;19.59;56.50;97935.88;5004367;28;20034;-52
2022/08/09 06:54:37;;;;;;;3.28;2.10;;;19.70;85.10;;;19.76;56.20;97939.31;5012180;28;20106;-53
2022/08/09 06:57:03;;;;;;;3.30;1.90;;;19.80;84.90;;;19.90;56.22;97931.22;5008847;28;20103;-54
2022/08/09 06:59:28;;;;;;;2.65;1.67;;;20.00;84.80;;;20.08;55.78;97941.66;5014250;28;20041;-53
2022/08/09 07:01:54;;;;;;;2.88;1.67;;;20.20;84.50;;;20.27;54.87;97936.75;5004638;28;20030;-53
2022/08/09 07:04:20;;;;;;;2.47;1.80;;;20.30;83.90;;;20.44;54.75;97937.44;5017372;28;20402;-53
2022/08/09 07:06:46;;;;;;;3.63;2.13;;;20.50;83.60;;;20.62;53.72;97936.22;5006154;28;20140;-53
2022/08/09 07:09:11;;;;;;;3.78;2.17;;;20.70;83.00;;;20.81;53.32;97945.66;4989211;28;20585;-51
2022/08/09 07:11:38;;;;;;;4.88;2.13;;;20.80;82.30;;;20.95;52.75;97945.53;5012689;28;20135;-55
2022/08/09 07:14:03;;;;;;;2.10;1.75;;;21.00;81.90;;;21.13;52.63;97946.06;5014690;28;20104;-53
2022/08/09 07:16:29;;;;;;;4.40;2.03;;;21.20;81.80;;;21.30;51.91;97948.38;5009157;28;20443;-54
2022/08/09 07:18:55;;;;;;;6.90;2.30;;;21.30;81.10;;;21.44;51.08;97950.06;5008160;28;20084;-52
2022/08/09 07:21:21;;;;;;;3.72;1.80;;;21.40;80.10;;;21.58;50.47;97949.09;5009969;28;20037;-48
2022/08/09 07:23:46;;;;;;;2.15;1.73;;;21.50;79.80;;;21.73;49.92;97949.78;5006337;28;20122;-54
2022/08/09 07:26:12;;;;;;;5.38;2.00;;;21.70;79.20;;;21.87;49.49;97954.13;5007373;28;20476;-54
2022/08/09 07:28:38;;;;;;;2.78;1.90;;;21.80;78.90;;;22.00;49.13;97962.13;5010634;28;20284;-56
2022/08/09 07:31:04;;;;;;;2.33;2.13;;;22.00;78.20;;;22.07;48.72;97947.28;5020794;22;20493;-45
2022/08/09 07:33:31;;;;;;;5.10;1.80;;;22.00;77.70;;;22.22;48.57;97956.03;5007985;28;20041;-46
2022/08/09 07:35:57;;;;;;;4.53;2.38;;;22.20;77.70;;;22.26;48.01;97966.44;5012946;28;20303;-45
2022/08/09 07:38:24;;;;;;;2.67;2.20;;;22.30;76.80;;;22.30;47.17;97962.53;5013357;28;20136;-46
2022/08/09 07:40:51;;;;;;;3.67;2.60;;;22.30;76.10;;;22.33;47.30;97961.47;5014819;28;20604;-44
2022/08/09 07:43:17;;;;;;;2.80;2.20;;;22.30;76.10;;;22.36;47.78;97963.91;5013711;28;20042;-44
2022/08/09 07:45:43;;;;;;;5.18;2.42;;;22.30;76.50;;;22.41;47.64;97967.09;5011564;28;20160;-44
2022/08/09 07:48:10;;;;;;;2.30;1.92;;;22.40;76.30;;;22.46;47.09;97962.22;5020677;28;20181;-45
2022/08/09 07:50:39;;;;;;;3.42;2.38;;;22.40;76.50;;;22.51;47.04;97961.88;5019566;28;20033;-47
2022/08/09 07:53:06;;;;;;;3.42;2.42;;;22.50;75.50;;;22.62;47.32;97969.13;5016596;28;20098;-46
2022/08/09 07:55:33;;;;;;;3.10;2.20;;;22.50;75.30;;;22.71;47.08;97964.88;5020674;28;20048;-45
2022/08/09 07:57:59;;;;;;;5.47;2.20;;;22.60;75.20;;;22.84;47.11;97965.59;5016384;28;20092;-43
2022/08/09 08:00:26;;;;;;;2.88;1.90;;;22.70;75.40;;;22.97;46.68;97965.50;5014128;28;20041;-46
2022/08/09 08:02:52;;;;;;;5.50;1.98;;;22.90;75.30;;;23.04;46.18;97967.66;5014480;28;20030;-46
2022/08/09 08:05:18;;;;;;;4.13;2.03;;;22.90;74.60;;;23.08;46.16;97973.63;5019492;28;20378;-38
2022/08/09 08:07:44;;;;;;;2.50;1.98;;;23.00;74.60;;;23.16;46.39;97967.63;5016210;28;20067;-43
2022/08/09 08:10:09;;;;;;;3.00;2.10;;;23.00;74.60;;;23.25;46.13;97967.75;5013798;28;20021;-45
2022/08/09 08:12:42;;;;;;;2.70;2.10;;;23.10;74.60;;;23.38;45.72;97970.34;4997325;28;20068;-44
2022/08/09 08:15:08;;;;;;;2.95;2.00;;;23.20;73.90;;;23.46;44.75;97974.25;4998161;28;20144;-44
2022/08/09 08:17:35;;;;;;;3.25;2.00;;;23.40;72.30;;;23.47;44.60;97978.63;5002214;28;20260;-45
2022/08/09 08:20:01;;;;;;;3.47;1.90;;;23.40;72.10;;;23.53;44.18;97976.31;4998699;28;20511;-43
2022/08/09 08:22:26;;;;;;;3.78;2.28;;;23.40;71.80;;;23.53;44.37;97970.94;5011869;28;20050;-46
2022/08/09 08:24:54;;;;;;;4.80;2.13;;;23.40;71.90;;;23.57;44.40;97971.53;5015310;28;20622;-42
2022/08/09 08:27:25;;;;;;;3.67;2.13;;;23.50;71.40;;;23.66;43.49;97973.47;5014084;28;20081;-42
2022/08/09 08:29:52;;;;;;;2.80;1.80;;;23.60;71.10;;;23.74;44.00;97979.09;4990760;28;20380;-44
2022/08/09 08:32:19;;;;;;;2.60;1.67;;;23.70;71.30;;;23.79;43.70;97978.72;5005570;28;20025;-45
2022/08/09 08:34:46;;;;;;;2.22;2.00;;;23.70;70.70;;;23.87;43.62;97975.41;5008954;28;20108;-43
2022/08/09 08:37:12;;;;;;;4.45;2.15;;;23.80;70.90;;;23.95;43.91;97981.03;5018438;28;20080;-45
2022/08/09 08:39:38;;;;;;;2.67;1.77;;;23.80;70.80;;;24.04;43.68;97982.13;5013992;28;20092;-44
2022/08/09 08:42:03;;;;;;;2.35;2.00;;;23.90;70.50;;;24.06;42.82;97978.28;5009160;28;20536;-42
2022/08/09 08:44:35;;;;;;;3.20;2.13;;;24.00;69.50;;;24.11;43.01;97983.31;5002502;28;20033;-45
2022/08/09 08:47:01;;;;;;;3.95;1.60;;;24.00;69.70;;;24.17;42.99;97985.50;5011800;28;20034;-44
2022/08/09 08:49:32;;;;;;;2.55;1.80;;;24.00;69.70;;;24.29;42.96;97986.31;5013131;28;20292;-44
2022/08/09 08:51:58;;;;;;;3.30;2.10;;;24.10;70.70;;;24.28;41.83;97987.28;5012542;28;20314;-42
2022/08/09 08:54:24;;;;;;;2.97;2.00;;;24.20;68.00;;;24.32;42.23;97986.91;5006849;28;20706;-46
2022/08/09 08:56:51;;;;;;;3.67;2.00;;;24.30;68.30;;;24.32;41.51;97983.38;5005924;28;20246;-44
2022/08/09 08:59:16;;;;;;;2.05;1.60;;;24.30;67.20;;;24.41;41.83;97987.97;4985832;28;20057;-42
2022/08/09 09:01:43;;;;;;;2.60;1.85;;;24.30;67.70;;;24.50;41.47;97987.19;4998698;28;20043;-42
2022/08/09 09:04:12;;;;;;;3.10;2.25;;;24.40;67.60;;;24.49;41.18;97990.88;5003575;28;20048;-43
2022/08/09 09:06:41;;;;;;;2.47;1.65;;;24.40;67.20;;;24.58;41.38;97978.47;5011172;28;20121;-44
2022/08/09 09:09:07;;;;;;;2.22;1.98;;;24.50;66.90;;;24.68;41.36;97989.34;5011866;28;20029;-45
2022/08/09 09:11:35;;;;;;;4.45;1.90;;;24.50;67.00;;;24.77;40.92;97984.00;5009017;28;20053;-44
2022/08/09 09:14:21;;;;;;;2.88;1.90;;;24.70;66.60;;;24.89;40.54;97981.25;5010095;28;20097;-44
2022/08/09 09:16:47;;;;;;;2.05;1.85;;;24.70;65.70;;;24.93;40.09;97972.75;4992186;28;20044;-45
2022/08/09 09:19:13;;;;;;;3.30;1.70;;;24.80;64.90;;;25.03;40.45;97971.94;5018477;28;20025;-46
2022/08/09 09:22:01;;;;;;;2.75;1.73;;;24.90;65.30;;;25.09;39.33;97974.13;5001236;28;20575;-45
2022/08/09 09:24:33;;;;;;;4.63;1.65;;;25.00;64.20;;;24.94;39.73;97942.09;5014114;28;20038;-43
2022/08/09 09:27:00;;;;;;;5.50;2.10;;;25.00;64.20;;;25.22;39.39;97963.13;5019813;28;20205;-43
2022/08/09 09:29:33;;;;;;;2.08;1.60;;;25.10;63.40;;;25.30;38.63;97966.00;5013632;28;20036;-46
2022/08/09 09:31:59;;;;;;;2.47;2.05;;;25.20;62.90;;;25.38;37.80;97965.34;5008332;28;20049;-45
2022/08/09 09:34:26;;;;;;;3.45;1.73;;;25.30;62.20;;;25.48;37.54;97977.00;5004627;28;20038;-43
2022/08/09 09:36:52;;;;;;;1.70;1.30;;;25.40;60.90;;;25.51;37.47;97966.78;5008519;28;20581;-43
2022/08/09 09:39:18;;;;;;;20.08;2.42;;;25.40;60.10;;;25.59;36.50;97976.06;5008609;28;20091;-46
2022/08/09 09:41:44;;;;;;;3.45;1.77;;;25.50;59.70;;;25.64;36.00;97966.53;5009210;28;20100;-46
2022/08/09 09:44:10;;;;;;;2.15;1.83;;;25.60;59.10;;;25.63;36.03;97975.66;5020806;28;20030;-41
2022/08/09 09:46:38;;;;;;;3.03;2.40;;;25.60;58.80;;;25.60;36.21;97962.41;5004838;28;20030;-45
2022/08/09 09:49:11;;;;;;;3.35;1.75;;;25.60;58.90;;;25.65;36.36;97964.72;5010593;28;20111;-45
2022/08/09 09:51:39;;;;;;;3.10;1.90;;;25.50;59.10;;;25.67;35.57;97955.47;5014576;28;20090;-46
2022/08/09 09:54:16;;;;;;;3.67;2.00;;;25.60;58.30;;;25.69;36.02;97958.88;4985720;28;20565;-43
2022/08/09 09:56:45;;;;;;;2.72;1.70;;;25.60;58.50;;;25.77;36.19;97954.63;4995164;28;20192;-42
2022/08/09 09:59:13;;;;;;;3.58;1.90;;;25.60;58.90;;;25.80;36.29;97957.91;5013332;28;20040;-42
2022/08/09 10:01:43;;;;;;;2.03;1.60;;;25.70;58.60;;;25.86;35.98;97948.38;5006284;28;20033;-46
2022/08/09 10:04:15;;;;;;;2.17;1.70;;;25.80;58.80;;;25.89;35.66;97950.81;5011290;28;20113;-43
2022/08/09 10:06:44;;;;;;;2.95;1.80;;;25.80;58.40;;;25.96;36.12;97953.84;5017022;28;20042;-40
2022/08/09 10:09:12;;;;;;;1.77;1.52;;;25.90;58.70;;;26.04;36.11;97949.47;5004598;28;20041;-41
2022/08/09 10:11:39;;;;;;;4.30;1.83;;;25.90;58.90;;;26.08;36.18;97944.63;5016215;28;20056;-41
2022/08/09 10:14:05;;;;;;;2.70;1.75;;;26.00;58.50;;;26.12;36.10;97942.50;5017175;28;20067;-45
2022/08/09 10:16:37;;;;;;;1.70;1.35;;;26.00;58.80;;;26.18;36.03;97942.75;5013178;28;20057;-41
2022/08/09 10:19:06;;;;;;;2.40;1.92;;;26.10;58.30;;;26.24;35.48;97953.03;5010842;28;20043;-45
2022/08/09 10:21:34;;;;;;;4.38;1.90;;;26.10;57.90;;;26.30;35.65;97943.50;5004870;28;20454;-45
2022/08/09 10:24:01;;;;;;;2.95;1.80;;;26.20;58.30;;;26.34;36.13;97939.50;5005306;28;20037;-46
2022/08/09 10:26:28;;;;;;;2.40;1.60;;;26.30;58.30;;;26.37;35.61;97943.78;5013656;28;20556;-44